sensor_id;sensor_type;location;lat;lon;timestamp;P1;durP1;ratioP1;P2;durP2;ratioP2
49384;SDS011;36795;45.028;38.968;2023-12-20T00:01:47;13.07;;;3.80;;
49384;SDS011;36795;45.028;38.968;2023-12-20T00:04:34;14.45;;;4.15;;
49384;SDS011;36795;45.028;38.968;2023-12-20T00:07:20;13.02;;;4.00;;
49384;SDS011;36795;45.028;38.968;2023-12-20T00:10:06;15.23;;;3.55;;
49384;SDS011;36795;45.028;38.968;2023-12-20T00:12:52;12.23;;;3.62;;
49384;SDS011;36795;45.028;38.968;2023-12-20T00:15:39;12.73;;;3.83;;
49384;SDS011;36795;45.028;38.968;2023-12-20T00:18:25;12.25;;;3.45;;
49384;SDS011;36795;45.028;38.968;2023-12-20T00:21:11;14.38;;;3.78;;
49384;SDS011;36795;45.028;38.968;2023-12-20T00:23:57;13.90;;;3.78;;
49384;SDS011;36795;45.028;38.968;2023-12-20T00:26:43;11.77;;;3.67;;
49384;SDS011;36795;45.028;38.968;2023-12-20T00:29:29;13.85;;;3.90;;
49384;SDS011;36795;45.028;38.968;2023-12-20T00:32:16;14.70;;;3.53;;
49384;SDS011;36795;45.028;38.968;2023-12-20T00:35:01;15.10;;;3.80;;
49384;SDS011;36795;45.028;38.968;2023-12-20T00:37:48;13.30;;;3.53;;
49384;SDS011;36795;45.028;38.968;2023-12-20T00:40:34;12.73;;;3.87;;
49384;SDS011;36795;45.028;38.968;2023-12-20T00:43:20;16.92;;;3.87;;
49384;SDS011;36795;45.028;38.968;2023-12-20T00:46:07;13.20;;;3.42;;
49384;SDS011;36795;45.028;38.968;2023-12-20T00:48:54;13.35;;;3.80;;
49384;SDS011;36795;45.028;38.968;2023-12-20T00:51:39;16.77;;;3.87;;
49384;SDS011;36795;45.028;38.968;2023-12-20T00:54:26;12.00;;;3.37;;
49384;SDS011;36795;45.028;38.968;2023-12-20T00:57:12;13.13;;;3.50;;
49384;SDS011;36795;45.028;38.968;2023-12-20T00:59:58;13.48;;;3.60;;
49384;SDS011;36795;45.028;38.968;2023-12-20T01:02:43;14.82;;;3.42;;
49384;SDS011;36795;45.028;38.968;2023-12-20T01:05:32;9.68;;;3.45;;
49384;SDS011;36795;45.028;38.968;2023-12-20T01:08:18;13.05;;;3.42;;
49384;SDS011;36795;45.028;38.968;2023-12-20T01:11:04;13.43;;;3.62;;
49384;SDS011;36795;45.028;38.968;2023-12-20T01:13:51;11.80;;;3.80;;
49384;SDS011;36795;45.028;38.968;2023-12-20T01:16:37;13.48;;;3.65;;
49384;SDS011;36795;45.028;38.968;2023-12-20T01:19:24;13.32;;;3.22;;
49384;SDS011;36795;45.028;38.968;2023-12-20T01:22:12;13.15;;;3.58;;
49384;SDS011;36795;45.028;38.968;2023-12-20T01:24:58;13.57;;;3.60;;
49384;SDS011;36795;45.028;38.968;2023-12-20T01:27:44;15.77;;;3.72;;
49384;SDS011;36795;45.028;38.968;2023-12-20T01:30:30;12.80;;;3.25;;
49384;SDS011;36795;45.028;38.968;2023-12-20T01:33:16;13.75;;;3.45;;
49384;SDS011;36795;45.028;38.968;2023-12-20T01:36:02;14.73;;;3.67;;
49384;SDS011;36795;45.028;38.968;2023-12-20T01:38:49;13.25;;;4.07;;
49384;SDS011;36795;45.028;38.968;2023-12-20T01:41:35;14.57;;;3.65;;
49384;SDS011;36795;45.028;38.968;2023-12-20T01:44:21;15.93;;;3.87;;
49384;SDS011;36795;45.028;38.968;2023-12-20T01:47:07;15.75;;;3.92;;
49384;SDS011;36795;45.028;38.968;2023-12-20T01:49:54;15.00;;;3.50;;
49384;SDS011;36795;45.028;38.968;2023-12-20T01:52:42;17.15;;;4.12;;
49384;SDS011;36795;45.028;38.968;2023-12-20T01:55:30;19.70;;;4.30;;
49384;SDS011;36795;45.028;38.968;2023-12-20T01:58:19;13.38;;;3.40;;
49384;SDS011;36795;45.028;38.968;2023-12-20T02:01:06;18.10;;;3.97;;
49384;SDS011;36795;45.028;38.968;2023-12-20T02:03:52;16.08;;;3.72;;
49384;SDS011;36795;45.028;38.968;2023-12-20T02:06:39;21.05;;;3.67;;
49384;SDS011;36795;45.028;38.968;2023-12-20T02:09:26;16.65;;;3.87;;
49384;SDS011;36795;45.028;38.968;2023-12-20T02:12:13;17.70;;;3.55;;
49384;SDS011;36795;45.028;38.968;2023-12-20T02:14:58;15.30;;;3.65;;
49384;SDS011;36795;45.028;38.968;2023-12-20T02:17:46;15.02;;;3.62;;
49384;SDS011;36795;45.028;38.968;2023-12-20T02:20:33;14.52;;;3.70;;
49384;SDS011;36795;45.028;38.968;2023-12-20T02:23:19;17.62;;;3.53;;
49384;SDS011;36795;45.028;38.968;2023-12-20T02:26:05;13.40;;;3.22;;
49384;SDS011;36795;45.028;38.968;2023-12-20T02:28:52;21.25;;;3.45;;
49384;SDS011;36795;45.028;38.968;2023-12-20T02:31:38;21.00;;;3.85;;
49384;SDS011;36795;45.028;38.968;2023-12-20T02:34:24;20.27;;;4.68;;
49384;SDS011;36795;45.028;38.968;2023-12-20T02:37:10;17.37;;;3.55;;
49384;SDS011;36795;45.028;38.968;2023-12-20T02:39:57;13.43;;;3.40;;
49384;SDS011;36795;45.028;38.968;2023-12-20T02:42:42;14.35;;;3.20;;
49384;SDS011;36795;45.028;38.968;2023-12-20T02:45:29;18.08;;;3.37;;
49384;SDS011;36795;45.028;38.968;2023-12-20T02:48:15;16.23;;;3.35;;
49384;SDS011;36795;45.028;38.968;2023-12-20T02:51:01;13.18;;;3.17;;
49384;SDS011;36795;45.028;38.968;2023-12-20T02:53:47;15.38;;;3.40;;
49384;SDS011;36795;45.028;38.968;2023-12-20T02:56:33;13.23;;;3.20;;
49384;SDS011;36795;45.028;38.968;2023-12-20T02:59:19;13.88;;;3.30;;
49384;SDS011;36795;45.028;38.968;2023-12-20T03:02:06;11.15;;;3.03;;
49384;SDS011;36795;45.028;38.968;2023-12-20T03:04:52;19.05;;;3.37;;
49384;SDS011;36795;45.028;38.968;2023-12-20T03:07:38;16.08;;;2.87;;
49384;SDS011;36795;45.028;38.968;2023-12-20T03:10:24;15.48;;;3.35;;
49384;SDS011;36795;45.028;38.968;2023-12-20T03:13:10;19.40;;;3.80;;
49384;SDS011;36795;45.028;38.968;2023-12-20T03:15:56;22.73;;;4.60;;
49384;SDS011;36795;45.028;38.968;2023-12-20T03:18:43;16.23;;;3.50;;
49384;SDS011;36795;45.028;38.968;2023-12-20T03:21:28;17.77;;;4.85;;
49384;SDS011;36795;45.028;38.968;2023-12-20T03:24:15;14.90;;;3.10;;
49384;SDS011;36795;45.028;38.968;2023-12-20T03:27:01;11.57;;;3.35;;
49384;SDS011;36795;45.028;38.968;2023-12-20T03:29:48;16.75;;;3.58;;
49384;SDS011;36795;45.028;38.968;2023-12-20T03:32:34;18.33;;;3.50;;
49384;SDS011;36795;45.028;38.968;2023-12-20T03:35:20;16.45;;;3.40;;
49384;SDS011;36795;45.028;38.968;2023-12-20T03:38:06;14.15;;;3.35;;
49384;SDS011;36795;45.028;38.968;2023-12-20T03:40:53;16.45;;;3.28;;
49384;SDS011;36795;45.028;38.968;2023-12-20T03:43:39;17.90;;;4.10;;
49384;SDS011;36795;45.028;38.968;2023-12-20T03:46:26;18.62;;;4.57;;
49384;SDS011;36795;45.028;38.968;2023-12-20T03:49:11;19.60;;;5.80;;
49384;SDS011;36795;45.028;38.968;2023-12-20T03:51:58;22.13;;;4.57;;
49384;SDS011;36795;45.028;38.968;2023-12-20T03:54:43;20.55;;;4.15;;
49384;SDS011;36795;45.028;38.968;2023-12-20T03:57:30;16.98;;;3.50;;
49384;SDS011;36795;45.028;38.968;2023-12-20T04:00:16;14.52;;;3.87;;
49384;SDS011;36795;45.028;38.968;2023-12-20T04:03:02;17.45;;;4.70;;
49384;SDS011;36795;45.028;38.968;2023-12-20T04:05:48;17.67;;;3.83;;
49384;SDS011;36795;45.028;38.968;2023-12-20T04:08:35;20.10;;;4.40;;
49384;SDS011;36795;45.028;38.968;2023-12-20T04:11:20;19.35;;;4.15;;
49384;SDS011;36795;45.028;38.968;2023-12-20T04:14:07;17.85;;;4.97;;
49384;SDS011;36795;45.028;38.968;2023-12-20T04:16:53;14.93;;;3.85;;
49384;SDS011;36795;45.028;38.968;2023-12-20T04:19:39;18.40;;;4.97;;
49384;SDS011;36795;45.028;38.968;2023-12-20T04:22:25;21.75;;;5.93;;
49384;SDS011;36795;45.028;38.968;2023-12-20T04:25:11;19.77;;;5.43;;
49384;SDS011;36795;45.028;38.968;2023-12-20T04:27:58;21.37;;;5.12;;
49384;SDS011;36795;45.028;38.968;2023-12-20T04:30:44;22.92;;;5.60;;
49384;SDS011;36795;45.028;38.968;2023-12-20T04:33:30;19.33;;;5.43;;
49384;SDS011;36795;45.028;38.968;2023-12-20T04:36:17;21.12;;;6.68;;
49384;SDS011;36795;45.028;38.968;2023-12-20T04:39:02;25.55;;;5.68;;
49384;SDS011;36795;45.028;38.968;2023-12-20T04:41:49;22.92;;;6.10;;
49384;SDS011;36795;45.028;38.968;2023-12-20T04:44:34;19.48;;;4.60;;
49384;SDS011;36795;45.028;38.968;2023-12-20T04:47:21;19.25;;;4.62;;
49384;SDS011;36795;45.028;38.968;2023-12-20T04:50:07;14.00;;;3.62;;
49384;SDS011;36795;45.028;38.968;2023-12-20T04:52:55;14.80;;;3.83;;
49384;SDS011;36795;45.028;38.968;2023-12-20T04:55:41;18.08;;;5.10;;
49384;SDS011;36795;45.028;38.968;2023-12-20T04:58:27;14.65;;;4.07;;
49384;SDS011;36795;45.028;38.968;2023-12-20T05:01:13;16.23;;;4.12;;
49384;SDS011;36795;45.028;38.968;2023-12-20T05:03:59;14.63;;;4.18;;
49384;SDS011;36795;45.028;38.968;2023-12-20T05:06:45;20.58;;;4.03;;
49384;SDS011;36795;45.028;38.968;2023-12-20T05:09:32;13.75;;;4.20;;
49384;SDS011;36795;45.028;38.968;2023-12-20T05:12:18;22.10;;;4.82;;
49384;SDS011;36795;45.028;38.968;2023-12-20T05:15:05;23.75;;;7.35;;
49384;SDS011;36795;45.028;38.968;2023-12-20T05:17:51;23.10;;;6.43;;
49384;SDS011;36795;45.028;38.968;2023-12-20T05:20:38;19.65;;;6.12;;
49384;SDS011;36795;45.028;38.968;2023-12-20T05:23:25;21.98;;;6.57;;
49384;SDS011;36795;45.028;38.968;2023-12-20T05:26:11;18.37;;;4.78;;
49384;SDS011;36795;45.028;38.968;2023-12-20T05:28:57;20.27;;;5.70;;
49384;SDS011;36795;45.028;38.968;2023-12-20T05:31:43;23.20;;;5.62;;
49384;SDS011;36795;45.028;38.968;2023-12-20T05:34:29;20.90;;;6.03;;
49384;SDS011;36795;45.028;38.968;2023-12-20T05:37:16;21.23;;;6.10;;
49384;SDS011;36795;45.028;38.968;2023-12-20T05:40:02;21.42;;;5.85;;
49384;SDS011;36795;45.028;38.968;2023-12-20T05:42:49;17.70;;;5.15;;
49384;SDS011;36795;45.028;38.968;2023-12-20T05:45:35;17.70;;;4.87;;
49384;SDS011;36795;45.028;38.968;2023-12-20T05:48:21;20.40;;;5.68;;
49384;SDS011;36795;45.028;38.968;2023-12-20T05:51:07;19.73;;;6.10;;
49384;SDS011;36795;45.028;38.968;2023-12-20T05:53:57;18.27;;;4.80;;
49384;SDS011;36795;45.028;38.968;2023-12-20T05:56:44;16.87;;;4.60;;
49384;SDS011;36795;45.028;38.968;2023-12-20T05:59:30;19.70;;;4.35;;
49384;SDS011;36795;45.028;38.968;2023-12-20T06:02:16;14.82;;;4.10;;
49384;SDS011;36795;45.028;38.968;2023-12-20T06:05:04;17.37;;;4.18;;
49384;SDS011;36795;45.028;38.968;2023-12-20T06:07:50;18.40;;;4.30;;
49384;SDS011;36795;45.028;38.968;2023-12-20T06:10:37;19.45;;;4.95;;
49384;SDS011;36795;45.028;38.968;2023-12-20T06:13:23;16.75;;;4.20;;
49384;SDS011;36795;45.028;38.968;2023-12-20T06:16:09;19.23;;;5.60;;
49384;SDS011;36795;45.028;38.968;2023-12-20T06:18:55;23.33;;;7.55;;
49384;SDS011;36795;45.028;38.968;2023-12-20T06:21:41;24.15;;;8.43;;
49384;SDS011;36795;45.028;38.968;2023-12-20T06:24:27;26.95;;;9.60;;
49384;SDS011;36795;45.028;38.968;2023-12-20T06:27:14;23.30;;;8.35;;
49384;SDS011;36795;45.028;38.968;2023-12-20T06:30:00;24.12;;;8.65;;
49384;SDS011;36795;45.028;38.968;2023-12-20T06:32:46;22.15;;;7.40;;
49384;SDS011;36795;45.028;38.968;2023-12-20T06:35:32;22.27;;;6.43;;
49384;SDS011;36795;45.028;38.968;2023-12-20T06:38:19;20.17;;;6.60;;
49384;SDS011;36795;45.028;38.968;2023-12-20T06:41:05;22.20;;;6.75;;
49384;SDS011;36795;45.028;38.968;2023-12-20T06:43:51;21.42;;;6.65;;
49384;SDS011;36795;45.028;38.968;2023-12-20T06:46:38;18.17;;;6.05;;
49384;SDS011;36795;45.028;38.968;2023-12-20T06:49:24;21.00;;;6.32;;
49384;SDS011;36795;45.028;38.968;2023-12-20T06:52:10;18.30;;;5.97;;
49384;SDS011;36795;45.028;38.968;2023-12-20T06:54:57;21.45;;;6.30;;
49384;SDS011;36795;45.028;38.968;2023-12-20T06:57:43;19.50;;;6.07;;
49384;SDS011;36795;45.028;38.968;2023-12-20T07:00:29;20.08;;;6.62;;
49384;SDS011;36795;45.028;38.968;2023-12-20T07:03:15;22.30;;;7.35;;
49384;SDS011;36795;45.028;38.968;2023-12-20T07:06:02;20.92;;;6.15;;
49384;SDS011;36795;45.028;38.968;2023-12-20T07:08:48;28.77;;;10.10;;
49384;SDS011;36795;45.028;38.968;2023-12-20T07:11:35;20.50;;;6.15;;
49384;SDS011;36795;45.028;38.968;2023-12-20T07:14:21;21.12;;;6.35;;
49384;SDS011;36795;45.028;38.968;2023-12-20T07:17:07;22.92;;;5.65;;
49384;SDS011;36795;45.028;38.968;2023-12-20T07:19:56;21.20;;;5.40;;
49384;SDS011;36795;45.028;38.968;2023-12-20T07:22:43;20.77;;;5.40;;
49384;SDS011;36795;45.028;38.968;2023-12-20T07:25:28;18.65;;;4.65;;
49384;SDS011;36795;45.028;38.968;2023-12-20T07:28:17;17.02;;;5.03;;
49384;SDS011;36795;45.028;38.968;2023-12-20T07:31:04;18.20;;;4.75;;
49384;SDS011;36795;45.028;38.968;2023-12-20T07:33:50;15.38;;;4.18;;
49384;SDS011;36795;45.028;38.968;2023-12-20T07:36:36;17.75;;;4.90;;
49384;SDS011;36795;45.028;38.968;2023-12-20T07:39:23;16.23;;;3.92;;
49384;SDS011;36795;45.028;38.968;2023-12-20T07:42:08;15.43;;;4.22;;
49384;SDS011;36795;45.028;38.968;2023-12-20T07:44:55;12.00;;;3.00;;
49384;SDS011;36795;45.028;38.968;2023-12-20T07:47:41;13.95;;;3.03;;
49384;SDS011;36795;45.028;38.968;2023-12-20T07:50:27;12.30;;;3.60;;
49384;SDS011;36795;45.028;38.968;2023-12-20T07:53:13;12.00;;;3.10;;
49384;SDS011;36795;45.028;38.968;2023-12-20T07:55:59;16.12;;;3.62;;
49384;SDS011;36795;45.028;38.968;2023-12-20T07:58:45;15.07;;;3.53;;
49384;SDS011;36795;45.028;38.968;2023-12-20T08:01:34;12.45;;;3.15;;
49384;SDS011;36795;45.028;38.968;2023-12-20T08:04:20;12.63;;;3.10;;
49384;SDS011;36795;45.028;38.968;2023-12-20T08:07:07;10.55;;;2.95;;
49384;SDS011;36795;45.028;38.968;2023-12-20T08:09:53;12.37;;;3.22;;
49384;SDS011;36795;45.028;38.968;2023-12-20T08:12:42;16.90;;;3.80;;
49384;SDS011;36795;45.028;38.968;2023-12-20T08:15:28;17.60;;;4.18;;
49384;SDS011;36795;45.028;38.968;2023-12-20T08:18:14;15.75;;;4.32;;
49384;SDS011;36795;45.028;38.968;2023-12-20T08:21:00;22.48;;;6.95;;
49384;SDS011;36795;45.028;38.968;2023-12-20T08:23:47;19.85;;;4.50;;
49384;SDS011;36795;45.028;38.968;2023-12-20T08:26:33;17.95;;;4.15;;
49384;SDS011;36795;45.028;38.968;2023-12-20T08:29:19;11.27;;;3.37;;
49384;SDS011;36795;45.028;38.968;2023-12-20T08:32:06;12.45;;;3.08;;
49384;SDS011;36795;45.028;38.968;2023-12-20T08:34:52;16.27;;;3.05;;
49384;SDS011;36795;45.028;38.968;2023-12-20T08:37:39;10.60;;;2.95;;
49384;SDS011;36795;45.028;38.968;2023-12-20T08:40:25;9.18;;;2.80;;
49384;SDS011;36795;45.028;38.968;2023-12-20T08:43:11;10.70;;;2.53;;
49384;SDS011;36795;45.028;38.968;2023-12-20T08:45:57;12.80;;;2.87;;
49384;SDS011;36795;45.028;38.968;2023-12-20T08:48:44;13.55;;;3.00;;
49384;SDS011;36795;45.028;38.968;2023-12-20T08:51:30;8.75;;;2.08;;
49384;SDS011;36795;45.028;38.968;2023-12-20T08:54:17;10.32;;;2.30;;
49384;SDS011;36795;45.028;38.968;2023-12-20T08:57:04;7.12;;;1.90;;
49384;SDS011;36795;45.028;38.968;2023-12-20T08:59:52;8.80;;;1.87;;
49384;SDS011;36795;45.028;38.968;2023-12-20T09:02:38;7.53;;;2.12;;
49384;SDS011;36795;45.028;38.968;2023-12-20T09:05:25;7.80;;;1.95;;
49384;SDS011;36795;45.028;38.968;2023-12-20T09:08:11;11.02;;;2.53;;
49384;SDS011;36795;45.028;38.968;2023-12-20T09:10:58;10.05;;;2.17;;
49384;SDS011;36795;45.028;38.968;2023-12-20T09:13:43;8.88;;;2.12;;
49384;SDS011;36795;45.028;38.968;2023-12-20T09:16:30;10.43;;;1.70;;
49384;SDS011;36795;45.028;38.968;2023-12-20T09:19:16;9.63;;;2.22;;
49384;SDS011;36795;45.028;38.968;2023-12-20T09:22:03;11.35;;;2.33;;
49384;SDS011;36795;45.028;38.968;2023-12-20T09:24:50;11.57;;;2.42;;
49384;SDS011;36795;45.028;38.968;2023-12-20T09:27:36;11.45;;;2.20;;
49384;SDS011;36795;45.028;38.968;2023-12-20T09:30:23;8.32;;;2.20;;
49384;SDS011;36795;45.028;38.968;2023-12-20T09:33:12;12.52;;;1.90;;
49384;SDS011;36795;45.028;38.968;2023-12-20T09:35:58;12.98;;;2.35;;
49384;SDS011;36795;45.028;38.968;2023-12-20T09:38:45;6.47;;;1.80;;
49384;SDS011;36795;45.028;38.968;2023-12-20T09:41:31;10.85;;;2.55;;
49384;SDS011;36795;45.028;38.968;2023-12-20T09:44:21;13.50;;;2.25;;
49384;SDS011;36795;45.028;38.968;2023-12-20T09:47:08;9.73;;;1.90;;
49384;SDS011;36795;45.028;38.968;2023-12-20T09:50:03;10.77;;;1.95;;
49384;SDS011;36795;45.028;38.968;2023-12-20T09:52:50;8.88;;;2.10;;
49384;SDS011;36795;45.028;38.968;2023-12-20T09:55:38;10.93;;;1.87;;
49384;SDS011;36795;45.028;38.968;2023-12-20T09:58:26;8.38;;;1.73;;
49384;SDS011;36795;45.028;38.968;2023-12-20T10:01:16;11.80;;;2.45;;
49384;SDS011;36795;45.028;38.968;2023-12-20T10:04:26;8.82;;;1.58;;
49384;SDS011;36795;45.028;38.968;2023-12-20T10:07:18;8.80;;;1.98;;
49384;SDS011;36795;45.028;38.968;2023-12-20T10:10:04;6.47;;;1.80;;
49384;SDS011;36795;45.028;38.968;2023-12-20T10:13:10;11.48;;;2.15;;
49384;SDS011;36795;45.028;38.968;2023-12-20T10:15:59;9.40;;;2.03;;
49384;SDS011;36795;45.028;38.968;2023-12-20T10:18:56;11.70;;;2.03;;
49384;SDS011;36795;45.028;38.968;2023-12-20T10:21:43;6.55;;;1.70;;
49384;SDS011;36795;45.028;38.968;2023-12-20T10:24:30;9.18;;;1.58;;
49384;SDS011;36795;45.028;38.968;2023-12-20T10:27:16;11.50;;;1.87;;
49384;SDS011;36795;45.028;38.968;2023-12-20T10:30:06;5.75;;;1.62;;
49384;SDS011;36795;45.028;38.968;2023-12-20T10:32:53;9.50;;;2.20;;
49384;SDS011;36795;45.028;38.968;2023-12-20T10:35:39;10.98;;;1.83;;
49384;SDS011;36795;45.028;38.968;2023-12-20T10:38:25;5.90;;;1.60;;
49384;SDS011;36795;45.028;38.968;2023-12-20T10:41:13;9.10;;;1.90;;
49384;SDS011;36795;45.028;38.968;2023-12-20T10:44:03;8.00;;;2.05;;
49384;SDS011;36795;45.028;38.968;2023-12-20T10:46:49;10.48;;;2.12;;
49384;SDS011;36795;45.028;38.968;2023-12-20T10:49:43;7.03;;;1.58;;
49384;SDS011;36795;45.028;38.968;2023-12-20T10:52:31;8.15;;;1.83;;
49384;SDS011;36795;45.028;38.968;2023-12-20T10:55:20;4.70;;;1.58;;
49384;SDS011;36795;45.028;38.968;2023-12-20T10:58:11;5.82;;;1.42;;
49384;SDS011;36795;45.028;38.968;2023-12-20T11:01:00;7.75;;;1.67;;
49384;SDS011;36795;45.028;38.968;2023-12-20T11:03:53;13.25;;;1.95;;
49384;SDS011;36795;45.028;38.968;2023-12-20T11:06:46;7.68;;;1.90;;
49384;SDS011;36795;45.028;38.968;2023-12-20T11:09:39;7.37;;;1.77;;
49384;SDS011;36795;45.028;38.968;2023-12-20T11:12:41;7.12;;;1.70;;
49384;SDS011;36795;45.028;38.968;2023-12-20T11:15:38;9.25;;;2.15;;
49384;SDS011;36795;45.028;38.968;2023-12-20T11:18:29;9.32;;;1.87;;
49384;SDS011;36795;45.028;38.968;2023-12-20T11:21:19;12.57;;;2.20;;
49384;SDS011;36795;45.028;38.968;2023-12-20T11:24:07;8.52;;;1.95;;
49384;SDS011;36795;45.028;38.968;2023-12-20T11:26:55;9.27;;;1.65;;
49384;SDS011;36795;45.028;38.968;2023-12-20T11:29:43;12.32;;;2.33;;
49384;SDS011;36795;45.028;38.968;2023-12-20T11:32:45;7.10;;;1.67;;
49384;SDS011;36795;45.028;38.968;2023-12-20T11:35:45;5.43;;;1.15;;
49384;SDS011;36795;45.028;38.968;2023-12-20T11:39:17;7.35;;;1.77;;
49384;SDS011;36795;45.028;38.968;2023-12-20T11:41:45;5.47;;;1.58;;
49384;SDS011;36795;45.028;38.968;2023-12-20T11:44:32;6.57;;;2.00;;
49384;SDS011;36795;45.028;38.968;2023-12-20T11:47:19;4.40;;;1.27;;
49384;SDS011;36795;45.028;38.968;2023-12-20T11:50:05;7.32;;;1.25;;
49384;SDS011;36795;45.028;38.968;2023-12-20T11:52:52;8.52;;;1.77;;
49384;SDS011;36795;45.028;38.968;2023-12-20T11:55:40;7.40;;;1.90;;
49384;SDS011;36795;45.028;38.968;2023-12-20T11:58:26;6.70;;;1.50;;
49384;SDS011;36795;45.028;38.968;2023-12-20T12:01:13;9.68;;;1.50;;
49384;SDS011;36795;45.028;38.968;2023-12-20T12:04:08;10.18;;;1.85;;
49384;SDS011;36795;45.028;38.968;2023-12-20T12:06:55;7.10;;;1.67;;
49384;SDS011;36795;45.028;38.968;2023-12-20T12:09:42;6.70;;;1.37;;
49384;SDS011;36795;45.028;38.968;2023-12-20T12:12:29;7.37;;;1.60;;
49384;SDS011;36795;45.028;38.968;2023-12-20T12:15:16;8.13;;;1.85;;
49384;SDS011;36795;45.028;38.968;2023-12-20T12:18:02;8.20;;;1.83;;
49384;SDS011;36795;45.028;38.968;2023-12-20T12:20:49;9.27;;;1.83;;
49384;SDS011;36795;45.028;38.968;2023-12-20T12:23:35;6.53;;;1.60;;
49384;SDS011;36795;45.028;38.968;2023-12-20T12:26:24;5.72;;;1.70;;
49384;SDS011;36795;45.028;38.968;2023-12-20T12:29:12;9.23;;;1.92;;
49384;SDS011;36795;45.028;38.968;2023-12-20T12:31:59;5.10;;;1.85;;
49384;SDS011;36795;45.028;38.968;2023-12-20T12:34:45;10.38;;;1.90;;
49384;SDS011;36795;45.028;38.968;2023-12-20T12:37:33;7.75;;;1.77;;
49384;SDS011;36795;45.028;38.968;2023-12-20T12:40:20;7.53;;;1.70;;
49384;SDS011;36795;45.028;38.968;2023-12-20T12:43:06;9.63;;;1.98;;
49384;SDS011;36795;45.028;38.968;2023-12-20T12:45:53;7.87;;;1.80;;
49384;SDS011;36795;45.028;38.968;2023-12-20T12:48:40;8.07;;;1.83;;
49384;SDS011;36795;45.028;38.968;2023-12-20T12:51:27;15.57;;;2.95;;
49384;SDS011;36795;45.028;38.968;2023-12-20T12:54:13;4.32;;;1.50;;
49384;SDS011;36795;45.028;38.968;2023-12-20T12:57:01;12.00;;;1.92;;
49384;SDS011;36795;45.028;38.968;2023-12-20T12:59:47;7.93;;;2.12;;
49384;SDS011;36795;45.028;38.968;2023-12-20T13:02:34;10.00;;;2.30;;
49384;SDS011;36795;45.028;38.968;2023-12-20T13:05:23;18.20;;;2.78;;
49384;SDS011;36795;45.028;38.968;2023-12-20T13:08:08;9.10;;;1.85;;
49384;SDS011;36795;45.028;38.968;2023-12-20T13:10:56;12.77;;;2.00;;
49384;SDS011;36795;45.028;38.968;2023-12-20T13:13:45;10.23;;;1.95;;
49384;SDS011;36795;45.028;38.968;2023-12-20T13:16:32;12.35;;;2.65;;
49384;SDS011;36795;45.028;38.968;2023-12-20T13:19:19;13.30;;;2.87;;
49384;SDS011;36795;45.028;38.968;2023-12-20T13:22:06;7.07;;;2.15;;
49384;SDS011;36795;45.028;38.968;2023-12-20T13:24:51;13.57;;;2.78;;
49384;SDS011;36795;45.028;38.968;2023-12-20T13:27:38;13.62;;;3.00;;
49384;SDS011;36795;45.028;38.968;2023-12-20T13:30:24;14.48;;;3.12;;
49384;SDS011;36795;45.028;38.968;2023-12-20T13:33:10;15.68;;;3.53;;
49384;SDS011;36795;45.028;38.968;2023-12-20T13:35:57;14.80;;;3.50;;
49384;SDS011;36795;45.028;38.968;2023-12-20T13:38:43;13.55;;;2.72;;
49384;SDS011;36795;45.028;38.968;2023-12-20T13:41:29;16.77;;;4.05;;
49384;SDS011;36795;45.028;38.968;2023-12-20T13:44:16;25.67;;;6.93;;
49384;SDS011;36795;45.028;38.968;2023-12-20T13:47:02;10.45;;;3.20;;
49384;SDS011;36795;45.028;38.968;2023-12-20T13:49:49;20.58;;;3.62;;
49384;SDS011;36795;45.028;38.968;2023-12-20T13:52:35;21.77;;;4.57;;
49384;SDS011;36795;45.028;38.968;2023-12-20T13:55:22;16.80;;;3.30;;
49384;SDS011;36795;45.028;38.968;2023-12-20T13:58:10;18.95;;;2.95;;
49384;SDS011;36795;45.028;38.968;2023-12-20T14:00:56;21.62;;;4.20;;
49384;SDS011;36795;45.028;38.968;2023-12-20T14:03:43;21.45;;;5.12;;
49384;SDS011;36795;45.028;38.968;2023-12-20T14:06:29;25.42;;;8.18;;
49384;SDS011;36795;45.028;38.968;2023-12-20T14:09:15;23.75;;;7.60;;
49384;SDS011;36795;45.028;38.968;2023-12-20T14:12:01;20.50;;;5.65;;
49384;SDS011;36795;45.028;38.968;2023-12-20T14:14:48;37.13;;;8.60;;
49384;SDS011;36795;45.028;38.968;2023-12-20T14:17:35;33.70;;;7.43;;
49384;SDS011;36795;45.028;38.968;2023-12-20T14:20:22;23.48;;;5.75;;
49384;SDS011;36795;45.028;38.968;2023-12-20T14:23:08;21.45;;;4.53;;
49384;SDS011;36795;45.028;38.968;2023-12-20T14:25:55;32.55;;;9.50;;
49384;SDS011;36795;45.028;38.968;2023-12-20T14:28:43;26.40;;;6.60;;
49384;SDS011;36795;45.028;38.968;2023-12-20T14:31:29;24.10;;;5.70;;
49384;SDS011;36795;45.028;38.968;2023-12-20T14:34:15;25.67;;;7.32;;
49384;SDS011;36795;45.028;38.968;2023-12-20T14:37:02;27.42;;;7.30;;
49384;SDS011;36795;45.028;38.968;2023-12-20T14:39:49;23.42;;;6.95;;
49384;SDS011;36795;45.028;38.968;2023-12-20T14:42:35;30.52;;;8.82;;
49384;SDS011;36795;45.028;38.968;2023-12-20T14:45:21;25.27;;;7.20;;
49384;SDS011;36795;45.028;38.968;2023-12-20T14:48:08;26.52;;;7.85;;
49384;SDS011;36795;45.028;38.968;2023-12-20T14:50:54;41.15;;;8.25;;
49384;SDS011;36795;45.028;38.968;2023-12-20T14:53:40;34.67;;;8.93;;
49384;SDS011;36795;45.028;38.968;2023-12-20T14:56:27;32.97;;;8.10;;
49384;SDS011;36795;45.028;38.968;2023-12-20T14:59:13;32.08;;;8.45;;
49384;SDS011;36795;45.028;38.968;2023-12-20T15:01:59;32.92;;;8.35;;
49384;SDS011;36795;45.028;38.968;2023-12-20T15:04:48;32.35;;;9.40;;
49384;SDS011;36795;45.028;38.968;2023-12-20T15:07:36;33.58;;;9.73;;
49384;SDS011;36795;45.028;38.968;2023-12-20T15:10:22;34.40;;;12.90;;
49384;SDS011;36795;45.028;38.968;2023-12-20T15:13:08;30.27;;;10.35;;
49384;SDS011;36795;45.028;38.968;2023-12-20T15:15:55;34.35;;;11.60;;
49384;SDS011;36795;45.028;38.968;2023-12-20T15:18:40;41.90;;;14.02;;
49384;SDS011;36795;45.028;38.968;2023-12-20T15:21:27;41.08;;;10.82;;
49384;SDS011;36795;45.028;38.968;2023-12-20T15:24:18;38.70;;;11.15;;
49384;SDS011;36795;45.028;38.968;2023-12-20T15:27:12;33.00;;;10.38;;
49384;SDS011;36795;45.028;38.968;2023-12-20T15:29:58;36.65;;;10.45;;
49384;SDS011;36795;45.028;38.968;2023-12-20T15:32:45;36.25;;;9.63;;
49384;SDS011;36795;45.028;38.968;2023-12-20T15:35:31;34.53;;;10.07;;
49384;SDS011;36795;45.028;38.968;2023-12-20T15:38:17;37.17;;;10.45;;
49384;SDS011;36795;45.028;38.968;2023-12-20T15:41:03;36.05;;;9.88;;
49384;SDS011;36795;45.028;38.968;2023-12-20T15:43:50;34.92;;;9.05;;
49384;SDS011;36795;45.028;38.968;2023-12-20T15:46:35;39.78;;;9.50;;
49384;SDS011;36795;45.028;38.968;2023-12-20T15:49:22;39.13;;;12.32;;
49384;SDS011;36795;45.028;38.968;2023-12-20T15:52:08;35.70;;;11.90;;
49384;SDS011;36795;45.028;38.968;2023-12-20T15:54:55;37.42;;;11.43;;
49384;SDS011;36795;45.028;38.968;2023-12-20T15:57:41;42.22;;;11.80;;
49384;SDS011;36795;45.028;38.968;2023-12-20T16:00:27;35.97;;;10.77;;
49384;SDS011;36795;45.028;38.968;2023-12-20T16:03:15;37.17;;;10.52;;
49384;SDS011;36795;45.028;38.968;2023-12-20T16:06:01;30.88;;;9.77;;
49384;SDS011;36795;45.028;38.968;2023-12-20T16:08:48;35.80;;;11.57;;
49384;SDS011;36795;45.028;38.968;2023-12-20T16:11:34;29.00;;;9.05;;
49384;SDS011;36795;45.028;38.968;2023-12-20T16:14:20;31.15;;;9.02;;
49384;SDS011;36795;45.028;38.968;2023-12-20T16:17:06;30.98;;;9.18;;
49384;SDS011;36795;45.028;38.968;2023-12-20T16:19:52;38.50;;;17.35;;